Nearby METAR Reports

 

KCOU - Columbia, Missouri, USA
Distance from station: WNW 14mi, 23km
Updated: Wed, 24-Jul-2024 12:54pm CDT
Clear
Clear
 Wind from WNW
Wind: WNW 5 mph , 7 km/h
Temperature: 86°F , 30°C
Heat Index: 88°F , 31°C
Dew Point: 66°F , 19°C
Humidity: 52%
Barometer: 30.16 inHg , 1021.3 hPa
Clouds: Clear
Visibility: 10 miles , 16 km
2024/07/24 17:54 KCOU 241754Z 29004KT 10SM CLR 30/19 A3016 RMK AO2 SLP204 T03000194 10306 20194 58000
KJEF - Jefferson City, Missouri, USA
Distance from station: SW 14mi, 23km
Updated: Wed, 24-Jul-2024 12:53pm CDT
Clear
Clear
 Wind from calm
Wind: Calm
Temperature: 88°F , 31°C
Heat Index: 91°F , 33°C
Dew Point: 66°F , 19°C
Humidity: 49%
Barometer: 30.15 inHg , 1021 hPa
Clouds: Clear
Visibility: 10 miles , 16 km
2024/07/24 17:53 KJEF 241753Z 00000KT 10SM CLR 31/19 A3015 RMK AO2 SLP194 T03060189 10311 20200 58001
 
KMYJ - Mexico, Missouri, USA
Distance from station: NNE 29mi, 46km
Updated: Wed, 24-Jul-2024 1:35pm CDT
Clear
Clear
 Wind from WNW
Wind: WNW 5 mph , 7 km/h
Temperature: 84°F , 29°C
Heat Index: 87°F , 31°C
Dew Point: 68°F , 20°C
Humidity: 58%
Barometer: 30.15 inHg , 1021 hPa
Clouds: Clear
Visibility: 10 miles , 16 km
2024/07/24 18:35 KMYJ 241835Z AUTO 29004KT 10SM CLR 29/20 A3015 RMK AO2
KVER - Boonville, Missouri, USA
Distance from station: WNW 41mi, 66km
Updated: Wed, 24-Jul-2024 1:35pm CDT
Partly cloudy
Partly cloudy
 Wind from NW
Wind: NW 6 mph , 9 km/h
Temperature: 86°F , 30°C
Heat Index: 91°F , 33°C
Dew Point: 70°F , 21°C
Humidity: 59%
Barometer: 30.15 inHg , 1021 hPa
Clouds: Partly cloudy
Visibility: 10 miles , 16 km
Cloud details: Partly cloudy 4400 ft
2024/07/24 18:35 KVER 241835Z AUTO 31005KT 10SM SCT044 30/21 A3015 RMK AO2 T03040214 TSNO
 
KVIH - Vichy/Rolla, Missouri, USA
Distance from station: SSE 44mi, 71km
Updated: Wed, 24-Jul-2024 12:53pm CDT
Clear
Clear
 Wind from calm
Wind: Calm
Temperature: 84°F , 29°C
Heat Index: 86°F , 30°C
Dew Point: 66°F , 19°C
Humidity: 55%
Barometer: 30.18 inHg , 1022 hPa
Clouds: Clear
Visibility: 10 miles , 16 km
2024/07/24 17:53 KVIH 241753Z AUTO 00000KT 10SM CLR 29/19 A3018 RMK AO2 SLP209 T02940189 10306 20200 55001
KFYG - Washington, Missouri, USA
Distance from station: ESE 53mi, 86km
Updated: Wed, 24-Jul-2024 1:35pm CDT

 Wind from calm
Wind: Calm
Temperature: 86°F , 30°C
Heat Index: 89°F , 32°C
Dew Point: 68°F , 20°C
Humidity: 55%
Barometer: 30.13 inHg , 1020.3 hPa
Visibility: 10 miles , 16 km
2024/07/24 18:35 KFYG 241835Z AUTO 00000KT 10SM 30/20 A3013 RMK AO2
 
KAIZ - Kaiser Mem, Missouri, USA
Distance from station: SW 54mi, 88km
Updated: Wed, 24-Jul-2024 1:15pm CDT
Mostly cloudy
Mostly cloudy
 Wind from WSW
Wind: WSW 6 mph , 9 km/h
Temperature: 86°F , 30°C
Heat Index: 89°F , 32°C
Dew Point: 68°F , 20°C
Humidity: 55%
Barometer: 30.16 inHg , 1021.3 hPa
Clouds: Mostly cloudy
Visibility: 10 miles , 16 km
Cloud details: Few Clouds 200 ft
Mostly cloudy 4300 ft
2024/07/24 18:15 KAIZ 241815Z AUTO 25005KT 10SM FEW002 BKN043 30/20 A3016 RMK AO2 PNO $
KMBY - Moberly, Missouri, USA
Distance from station: NNW 55mi, 89km
Updated: Wed, 24-Jul-2024 1:35pm CDT
Clear
Clear
 Wind from calm
Wind: Calm
Temperature: 88°F , 31°C
Heat Index: 91°F , 33°C
Dew Point: 66°F , 19°C
Humidity: 49%
Barometer: 30.15 inHg , 1021 hPa
Clouds: Clear
Visibility: 10 miles , 16 km
2024/07/24 18:35 KMBY 241835Z AUTO 00000KT 10SM CLR 31/19 A3015 RMK AO2
 
KUUV - Sullivan, Missouri, USA
Distance from station: SE 56mi, 90km
Updated: Wed, 24-Jul-2024 1:35pm CDT
Partly cloudy
Partly cloudy
 Wind from calm
Wind: Calm
Temperature: 86°F , 30°C
Heat Index: 88°F , 31°C
Dew Point: 66°F , 19°C
Humidity: 52%
Barometer: 30.18 inHg , 1022 hPa
Clouds: Partly cloudy
Visibility: 10 miles , 16 km
Cloud details: Partly cloudy 4000 ft
Partly cloudy 4600 ft
2024/07/24 18:35 KUUV 241835Z AUTO 00000KT 10SM SCT040 SCT046 30/19 A3018 RMK AO2
KDMO - Sedalia, Missouri, USA
Distance from station: W 65mi, 104km
Updated: Wed, 24-Jul-2024 12:53pm CDT
Clear
Clear
 Wind from varies
Wind: varies 3 mph , 6 km/h
Temperature: 88°F , 31°C
Heat Index: 92°F , 33°C
Dew Point: 68°F , 20°C
Humidity: 52%
Barometer: 30.17 inHg , 1021.7 hPa
Clouds: Clear
Visibility: 10 miles , 16 km
2024/07/24 17:53 KDMO 241753Z AUTO VRB03KT 10SM CLR 31/20 A3017 RMK AO2 SLP206 T03060200 10306 20211 53001
 
KOZS - Camdenton, Missouri, USA
Distance from station: SW 67mi, 107km
Updated: Wed, 24-Jul-2024 1:35pm CDT
Overcast
Overcast
 Wind from calm
Wind: Calm
Temperature: 82°F , 28°C
Heat Index: 83°F , 28°C
Dew Point: 63°F , 17°C
Humidity: 51%
Barometer: 30.18 inHg , 1022 hPa
Clouds: Overcast
Visibility: 10 miles , 16 km
Cloud details: Overcast 4200 ft
2024/07/24 18:35 KOZS 241835Z AUTO 00000KT 10SM OVC042 28/17 A3018 RMK AO2
KMHL - Marshall, Missouri, USA
Distance from station: WNW 70mi, 113km
Updated: Wed, 24-Jul-2024 1:35pm CDT
Clear
Clear
 Wind from calm
Wind: Calm
Temperature: 84°F , 29°C
Heat Index: 88°F , 31°C
Dew Point: 70°F , 21°C
Humidity: 62%
Barometer: 30.16 inHg , 1021.3 hPa
Clouds: Clear
Visibility: 10 miles , 16 km
2024/07/24 18:35 KMHL 241835Z AUTO 00000KT 10SM CLR 29/21 A3016 RMK AO2
 
KSUS - St. Louis/Spirit, Missouri, USA
Distance from station: E 71mi, 115km
Updated: Wed, 24-Jul-2024 12:54pm CDT
Partly cloudy
Partly cloudy
 Wind from calm
Wind: Calm
Temperature: 84°F , 29°C
Heat Index: 87°F , 31°C
Dew Point: 68°F , 20°C
Humidity: 58%
Barometer: 30.13 inHg , 1020.3 hPa
Clouds: Partly cloudy
Visibility: 10 miles , 16 km
Cloud details: Partly cloudy 5000 ft
2024/07/24 17:54 KSUS 241754Z 00000KT 10SM SCT050 29/20 A3013 RMK AO2 SLP193 T02940200 10306 20206 58002
KTBN - Fort Leonard Woo, Missouri, USA
Distance from station: S 72mi, 116km
Updated: Wed, 24-Jul-2024 12:55pm CDT
Few Clouds
Few Clouds
 Wind from calm
Wind: Calm
Temperature: 86°F , 30°C
Heat Index: 88°F , 31°C
Dew Point: 66°F , 19°C
Humidity: 52%
Barometer: 30.15 inHg , 1021 hPa
Clouds: Few Clouds
Visibility: 10 miles , 16 km
Cloud details: Few Clouds 19000 ft
2024/07/24 17:55 KTBN 241755Z AUTO 00000KT 10SM FEW190 30/19 A3015 RMK AO2 SLP201 T03010191 10306 20199 58001
 
KHAE - Hannibal, Missouri, USA
Distance from station: NNE 73mi, 118km
Updated: Wed, 24-Jul-2024 1:35pm CDT
Clear
Clear
 Wind from W
Wind: W 5 mph , 7 km/h
Temperature: 86°F , 30°C
Heat Index: 89°F , 32°C
Dew Point: 68°F , 20°C
Humidity: 55%
Barometer: 30.14 inHg , 1020.7 hPa
Clouds: Clear
Visibility: 10 miles , 16 km
2024/07/24 18:35 KHAE 241835Z AUTO 28004KT 10SM CLR 30/20 A3014 RMK AO2